sensor_id;sensor_type;location;lat;lon;timestamp;P1;durP1;ratioP1;P2;durP2;ratioP2
53751;SDS011;41095;53.090;6.692;2022-11-12T00:00:06;8.93;;;6.30;;
53751;SDS011;41095;53.090;6.692;2022-11-12T00:02:33;5.63;;;4.97;;
53751;SDS011;41095;53.090;6.692;2022-11-12T00:04:58;6.80;;;5.97;;
53751;SDS011;41095;53.090;6.692;2022-11-12T00:07:24;8.30;;;6.80;;
53751;SDS011;41095;53.090;6.692;2022-11-12T00:09:49;7.78;;;5.97;;
53751;SDS011;41095;53.090;6.692;2022-11-12T00:12:15;7.97;;;5.70;;
53751;SDS011;41095;53.090;6.692;2022-11-12T00:14:41;7.20;;;5.80;;
53751;SDS011;41095;53.090;6.692;2022-11-12T00:17:06;6.80;;;5.78;;
53751;SDS011;41095;53.090;6.692;2022-11-12T00:19:32;9.88;;;6.25;;
53751;SDS011;41095;53.090;6.692;2022-11-12T00:21:58;7.97;;;6.22;;
53751;SDS011;41095;53.090;6.692;2022-11-12T00:24:23;10.30;;;6.70;;
53751;SDS011;41095;53.090;6.692;2022-11-12T00:26:49;7.97;;;6.47;;
53751;SDS011;41095;53.090;6.692;2022-11-12T00:29:15;9.48;;;5.82;;
53751;SDS011;41095;53.090;6.692;2022-11-12T00:31:40;8.45;;;6.15;;
53751;SDS011;41095;53.090;6.692;2022-11-12T00:34:06;12.65;;;7.00;;
53751;SDS011;41095;53.090;6.692;2022-11-12T00:36:32;8.30;;;6.50;;
53751;SDS011;41095;53.090;6.692;2022-11-12T00:38:57;11.40;;;6.70;;
53751;SDS011;41095;53.090;6.692;2022-11-12T00:41:23;9.35;;;6.85;;
53751;SDS011;41095;53.090;6.692;2022-11-12T00:43:49;10.05;;;6.80;;
53751;SDS011;41095;53.090;6.692;2022-11-12T00:46:15;8.93;;;7.25;;
53751;SDS011;41095;53.090;6.692;2022-11-12T00:48:40;8.18;;;6.47;;
53751;SDS011;41095;53.090;6.692;2022-11-12T00:51:06;8.60;;;6.90;;
53751;SDS011;41095;53.090;6.692;2022-11-12T00:53:32;8.50;;;6.93;;
53751;SDS011;41095;53.090;6.692;2022-11-12T00:56:01;7.45;;;6.38;;
53751;SDS011;41095;53.090;6.692;2022-11-12T00:58:29;7.55;;;5.75;;
53751;SDS011;41095;53.090;6.692;2022-11-12T01:00:55;8.93;;;6.95;;
53751;SDS011;41095;53.090;6.692;2022-11-12T01:03:22;9.50;;;7.93;;
53751;SDS011;41095;53.090;6.692;2022-11-12T01:05:48;8.45;;;6.32;;
53751;SDS011;41095;53.090;6.692;2022-11-12T01:08:13;7.88;;;6.68;;
53751;SDS011;41095;53.090;6.692;2022-11-12T01:10:39;7.35;;;6.03;;
53751;SDS011;41095;53.090;6.692;2022-11-12T01:13:05;7.45;;;6.70;;
53751;SDS011;41095;53.090;6.692;2022-11-12T01:15:30;8.48;;;7.03;;
53751;SDS011;41095;53.090;6.692;2022-11-12T01:17:56;8.88;;;7.95;;
53751;SDS011;41095;53.090;6.692;2022-11-12T01:20:22;9.15;;;7.38;;
53751;SDS011;41095;53.090;6.692;2022-11-12T01:22:47;10.32;;;7.50;;
53751;SDS011;41095;53.090;6.692;2022-11-12T01:25:13;9.23;;;6.85;;
53751;SDS011;41095;53.090;6.692;2022-11-12T01:27:39;8.07;;;6.15;;
53751;SDS011;41095;53.090;6.692;2022-11-12T01:30:04;11.60;;;6.97;;
53751;SDS011;41095;53.090;6.692;2022-11-12T01:32:33;9.73;;;6.97;;
53751;SDS011;41095;53.090;6.692;2022-11-12T01:35:00;8.18;;;6.28;;
53751;SDS011;41095;53.090;6.692;2022-11-12T01:37:26;10.02;;;7.38;;
53751;SDS011;41095;53.090;6.692;2022-11-12T01:39:52;6.72;;;6.03;;
53751;SDS011;41095;53.090;6.692;2022-11-12T01:42:17;9.93;;;7.53;;
53751;SDS011;41095;53.090;6.692;2022-11-12T01:44:43;8.40;;;6.88;;
53751;SDS011;41095;53.090;6.692;2022-11-12T01:49:57;9.48;;;7.25;;
53751;SDS011;41095;53.090;6.692;2022-11-12T01:55:02;11.15;;;8.40;;
53751;SDS011;41095;53.090;6.692;2022-11-12T01:57:39;15.00;;;8.70;;
53751;SDS011;41095;53.090;6.692;2022-11-12T02:00:10;12.02;;;8.60;;
53751;SDS011;41095;53.090;6.692;2022-11-12T02:02:37;10.70;;;8.30;;
53751;SDS011;41095;53.090;6.692;2022-11-12T02:05:04;10.23;;;7.40;;
53751;SDS011;41095;53.090;6.692;2022-11-12T02:07:32;8.65;;;7.82;;
53751;SDS011;41095;53.090;6.692;2022-11-12T02:10:00;9.82;;;7.45;;
53751;SDS011;41095;53.090;6.692;2022-11-12T02:12:27;9.20;;;7.25;;
53751;SDS011;41095;53.090;6.692;2022-11-12T02:15:12;9.68;;;7.47;;
53751;SDS011;41095;53.090;6.692;2022-11-12T02:17:38;12.20;;;8.70;;
53751;SDS011;41095;53.090;6.692;2022-11-12T02:20:04;10.32;;;9.27;;
53751;SDS011;41095;53.090;6.692;2022-11-12T02:22:34;10.45;;;7.72;;
53751;SDS011;41095;53.090;6.692;2022-11-12T02:24:59;9.07;;;7.05;;
53751;SDS011;41095;53.090;6.692;2022-11-12T02:27:25;10.35;;;8.05;;
53751;SDS011;41095;53.090;6.692;2022-11-12T02:29:51;10.55;;;9.40;;
53751;SDS011;41095;53.090;6.692;2022-11-12T02:32:17;12.57;;;8.52;;
53751;SDS011;41095;53.090;6.692;2022-11-12T02:34:43;10.20;;;9.18;;
53751;SDS011;41095;53.090;6.692;2022-11-12T02:37:09;13.00;;;9.60;;
53751;SDS011;41095;53.090;6.692;2022-11-12T02:39:35;10.13;;;8.30;;
53751;SDS011;41095;53.090;6.692;2022-11-12T02:42:00;12.07;;;10.07;;
53751;SDS011;41095;53.090;6.692;2022-11-12T02:44:26;11.40;;;9.57;;
53751;SDS011;41095;53.090;6.692;2022-11-12T02:46:52;12.95;;;10.20;;
53751;SDS011;41095;53.090;6.692;2022-11-12T02:49:18;14.65;;;10.45;;
53751;SDS011;41095;53.090;6.692;2022-11-12T02:51:44;14.18;;;10.60;;
53751;SDS011;41095;53.090;6.692;2022-11-12T02:54:09;13.93;;;11.20;;
53751;SDS011;41095;53.090;6.692;2022-11-12T02:56:35;11.35;;;9.70;;
53751;SDS011;41095;53.090;6.692;2022-11-12T02:59:01;13.48;;;10.48;;
53751;SDS011;41095;53.090;6.692;2022-11-12T03:01:27;13.55;;;11.07;;
53751;SDS011;41095;53.090;6.692;2022-11-12T03:03:52;12.82;;;9.55;;
53751;SDS011;41095;53.090;6.692;2022-11-12T03:06:18;13.00;;;10.23;;
53751;SDS011;41095;53.090;6.692;2022-11-12T03:08:44;15.90;;;10.95;;
53751;SDS011;41095;53.090;6.692;2022-11-12T03:11:10;12.65;;;9.90;;
53751;SDS011;41095;53.090;6.692;2022-11-12T03:13:39;12.57;;;9.35;;
53751;SDS011;41095;53.090;6.692;2022-11-12T03:16:05;11.93;;;9.98;;
53751;SDS011;41095;53.090;6.692;2022-11-12T03:18:31;10.23;;;9.18;;
53751;SDS011;41095;53.090;6.692;2022-11-12T03:20:57;14.82;;;10.52;;
53751;SDS011;41095;53.090;6.692;2022-11-12T03:23:22;14.85;;;11.07;;
53751;SDS011;41095;53.090;6.692;2022-11-12T03:25:49;13.40;;;10.60;;
53751;SDS011;41095;53.090;6.692;2022-11-12T03:28:15;14.20;;;10.48;;
53751;SDS011;41095;53.090;6.692;2022-11-12T03:30:41;13.48;;;10.82;;
53751;SDS011;41095;53.090;6.692;2022-11-12T03:33:08;13.68;;;10.98;;
53751;SDS011;41095;53.090;6.692;2022-11-12T03:35:36;14.45;;;10.70;;
53751;SDS011;41095;53.090;6.692;2022-11-12T03:38:02;13.55;;;11.05;;
53751;SDS011;41095;53.090;6.692;2022-11-12T03:40:28;12.82;;;9.98;;
53751;SDS011;41095;53.090;6.692;2022-11-12T03:42:55;12.00;;;9.27;;
53751;SDS011;41095;53.090;6.692;2022-11-12T03:45:21;13.52;;;10.15;;
53751;SDS011;41095;53.090;6.692;2022-11-12T03:47:50;11.60;;;9.48;;
53751;SDS011;41095;53.090;6.692;2022-11-12T03:50:18;12.43;;;9.73;;
53751;SDS011;41095;53.090;6.692;2022-11-12T03:52:46;8.10;;;7.18;;
53751;SDS011;41095;53.090;6.692;2022-11-12T03:55:13;10.38;;;7.95;;
53751;SDS011;41095;53.090;6.692;2022-11-12T03:57:40;11.20;;;9.00;;
53751;SDS011;41095;53.090;6.692;2022-11-12T04:00:06;8.05;;;7.30;;
53751;SDS011;41095;53.090;6.692;2022-11-12T04:02:33;7.93;;;7.03;;
53751;SDS011;41095;53.090;6.692;2022-11-12T04:04:59;17.48;;;8.85;;
53751;SDS011;41095;53.090;6.692;2022-11-12T04:07:43;8.77;;;7.53;;
53751;SDS011;41095;53.090;6.692;2022-11-12T04:10:27;44.17;;;10.15;;
53751;SDS011;41095;53.090;6.692;2022-11-12T04:12:55;44.85;;;10.48;;
53751;SDS011;41095;53.090;6.692;2022-11-12T04:15:39;89.93;;;13.48;;
53751;SDS011;41095;53.090;6.692;2022-11-12T04:18:05;204.15;;;25.65;;
53751;SDS011;41095;53.090;6.692;2022-11-12T04:20:49;148.55;;;19.20;;
53751;SDS011;41095;53.090;6.692;2022-11-12T04:23:33;11.05;;;7.00;;
53751;SDS011;41095;53.090;6.692;2022-11-12T04:25:59;7.68;;;6.32;;
53751;SDS011;41095;53.090;6.692;2022-11-12T04:28:43;8.77;;;7.35;;
53751;SDS011;41095;53.090;6.692;2022-11-12T04:31:29;8.25;;;7.25;;
53751;SDS011;41095;53.090;6.692;2022-11-12T04:33:55;8.68;;;6.90;;
53751;SDS011;41095;53.090;6.692;2022-11-12T04:36:40;8.20;;;7.40;;
53751;SDS011;41095;53.090;6.692;2022-11-12T04:39:06;7.47;;;6.78;;
53751;SDS011;41095;53.090;6.692;2022-11-12T04:41:32;8.80;;;7.40;;
53751;SDS011;41095;53.090;6.692;2022-11-12T04:44:16;9.05;;;7.15;;
53751;SDS011;41095;53.090;6.692;2022-11-12T04:47:00;10.57;;;7.35;;
53751;SDS011;41095;53.090;6.692;2022-11-12T04:49:27;9.15;;;7.70;;
53751;SDS011;41095;53.090;6.692;2022-11-12T04:51:52;10.02;;;6.70;;
53751;SDS011;41095;53.090;6.692;2022-11-12T04:54:30;7.25;;;6.10;;
53751;SDS011;41095;53.090;6.692;2022-11-12T04:56:57;6.57;;;5.32;;
53751;SDS011;41095;53.090;6.692;2022-11-12T04:59:22;10.45;;;6.75;;
53751;SDS011;41095;53.090;6.692;2022-11-12T05:01:48;11.43;;;7.00;;
53751;SDS011;41095;53.090;6.692;2022-11-12T05:04:14;7.25;;;6.57;;
53751;SDS011;41095;53.090;6.692;2022-11-12T05:06:40;6.45;;;5.70;;
53751;SDS011;41095;53.090;6.692;2022-11-12T05:09:25;14.82;;;7.43;;
53751;SDS011;41095;53.090;6.692;2022-11-12T05:11:53;8.40;;;6.90;;
53751;SDS011;41095;53.090;6.692;2022-11-12T05:14:19;10.15;;;7.57;;
53751;SDS011;41095;53.090;6.692;2022-11-12T05:16:46;9.95;;;7.75;;
53751;SDS011;41095;53.090;6.692;2022-11-12T05:19:12;8.25;;;6.78;;
53751;SDS011;41095;53.090;6.692;2022-11-12T05:21:37;8.52;;;7.63;;
53751;SDS011;41095;53.090;6.692;2022-11-12T05:24:22;9.52;;;8.52;;
53751;SDS011;41095;53.090;6.692;2022-11-12T05:26:47;12.77;;;9.43;;
53751;SDS011;41095;53.090;6.692;2022-11-12T05:29:13;10.00;;;8.07;;
53751;SDS011;41095;53.090;6.692;2022-11-12T05:31:39;10.25;;;8.27;;
53751;SDS011;41095;53.090;6.692;2022-11-12T05:34:05;8.93;;;7.53;;
53751;SDS011;41095;53.090;6.692;2022-11-12T05:36:30;11.10;;;7.90;;
53751;SDS011;41095;53.090;6.692;2022-11-12T05:38:56;10.48;;;8.70;;
53751;SDS011;41095;53.090;6.692;2022-11-12T05:41:22;9.45;;;8.32;;
53751;SDS011;41095;53.090;6.692;2022-11-12T05:43:48;10.05;;;8.85;;
53751;SDS011;41095;53.090;6.692;2022-11-12T05:46:13;10.27;;;8.88;;
53751;SDS011;41095;53.090;6.692;2022-11-12T05:48:39;14.02;;;9.95;;
53751;SDS011;41095;53.090;6.692;2022-11-12T05:51:05;12.15;;;9.93;;
53751;SDS011;41095;53.090;6.692;2022-11-12T05:53:30;11.85;;;9.60;;
53751;SDS011;41095;53.090;6.692;2022-11-12T05:56:00;12.05;;;10.82;;
53751;SDS011;41095;53.090;6.692;2022-11-12T05:58:26;14.30;;;11.13;;
53751;SDS011;41095;53.090;6.692;2022-11-12T06:00:52;12.30;;;10.57;;
53751;SDS011;41095;53.090;6.692;2022-11-12T06:03:18;10.35;;;9.30;;
53751;SDS011;41095;53.090;6.692;2022-11-12T06:05:43;10.45;;;8.20;;
53751;SDS011;41095;53.090;6.692;2022-11-12T06:08:09;8.48;;;7.65;;
53751;SDS011;41095;53.090;6.692;2022-11-12T06:10:35;7.47;;;6.82;;
53751;SDS011;41095;53.090;6.692;2022-11-12T06:13:00;7.15;;;6.40;;
53751;SDS011;41095;53.090;6.692;2022-11-12T06:15:26;7.43;;;6.72;;
53751;SDS011;41095;53.090;6.692;2022-11-12T06:17:52;9.90;;;8.90;;
53751;SDS011;41095;53.090;6.692;2022-11-12T06:20:18;9.38;;;8.48;;
53751;SDS011;41095;53.090;6.692;2022-11-12T06:22:45;9.27;;;8.32;;
53751;SDS011;41095;53.090;6.692;2022-11-12T06:25:10;9.85;;;6.78;;
53751;SDS011;41095;53.090;6.692;2022-11-12T06:27:36;15.45;;;8.45;;
53751;SDS011;41095;53.090;6.692;2022-11-12T06:30:02;8.80;;;7.13;;
53751;SDS011;41095;53.090;6.692;2022-11-12T06:32:29;83.43;;;13.13;;
53751;SDS011;41095;53.090;6.692;2022-11-12T06:34:54;34.22;;;7.85;;
53751;SDS011;41095;53.090;6.692;2022-11-12T06:37:20;33.00;;;8.80;;
53751;SDS011;41095;53.090;6.692;2022-11-12T06:39:46;5.65;;;5.20;;
53751;SDS011;41095;53.090;6.692;2022-11-12T06:42:13;6.63;;;6.03;;
53751;SDS011;41095;53.090;6.692;2022-11-12T06:44:39;6.88;;;6.18;;
53751;SDS011;41095;53.090;6.692;2022-11-12T06:47:05;8.43;;;6.90;;
53751;SDS011;41095;53.090;6.692;2022-11-12T06:49:30;13.90;;;7.60;;
53751;SDS011;41095;53.090;6.692;2022-11-12T06:51:56;82.18;;;12.32;;
53751;SDS011;41095;53.090;6.692;2022-11-12T06:54:22;102.68;;;12.35;;
53751;SDS011;41095;53.090;6.692;2022-11-12T06:56:48;42.67;;;9.35;;
53751;SDS011;41095;53.090;6.692;2022-11-12T06:59:14;23.08;;;7.80;;
53751;SDS011;41095;53.090;6.692;2022-11-12T07:01:39;38.72;;;8.18;;
53751;SDS011;41095;53.090;6.692;2022-11-12T07:04:05;24.17;;;7.65;;
53751;SDS011;41095;53.090;6.692;2022-11-12T07:06:32;7.72;;;6.50;;
53751;SDS011;41095;53.090;6.692;2022-11-12T07:08:58;8.23;;;6.60;;
53751;SDS011;41095;53.090;6.692;2022-11-12T07:11:24;8.77;;;6.05;;
53751;SDS011;41095;53.090;6.692;2022-11-12T07:13:50;8.15;;;7.20;;
53751;SDS011;41095;53.090;6.692;2022-11-12T07:16:15;7.57;;;6.85;;
53751;SDS011;41095;53.090;6.692;2022-11-12T07:18:43;7.18;;;6.47;;
53751;SDS011;41095;53.090;6.692;2022-11-12T07:21:11;7.45;;;6.75;;
53751;SDS011;41095;53.090;6.692;2022-11-12T07:23:38;9.70;;;6.38;;
53751;SDS011;41095;53.090;6.692;2022-11-12T07:26:11;9.50;;;7.38;;
53751;SDS011;41095;53.090;6.692;2022-11-12T07:28:42;10.20;;;8.07;;
53751;SDS011;41095;53.090;6.692;2022-11-12T07:31:09;10.40;;;7.22;;
53751;SDS011;41095;53.090;6.692;2022-11-12T07:33:36;16.45;;;8.45;;
53751;SDS011;41095;53.090;6.692;2022-11-12T07:36:02;20.67;;;8.98;;
53751;SDS011;41095;53.090;6.692;2022-11-12T07:38:29;13.18;;;9.18;;
53751;SDS011;41095;53.090;6.692;2022-11-12T07:41:06;10.82;;;7.35;;
53751;SDS011;41095;53.090;6.692;2022-11-12T07:43:33;22.92;;;9.55;;
53751;SDS011;41095;53.090;6.692;2022-11-12T07:46:07;24.60;;;9.40;;
53751;SDS011;41095;53.090;6.692;2022-11-12T07:48:35;38.05;;;13.02;;
53751;SDS011;41095;53.090;6.692;2022-11-12T07:51:03;82.65;;;17.13;;
53751;SDS011;41095;53.090;6.692;2022-11-12T07:53:30;26.77;;;10.77;;
53751;SDS011;41095;53.090;6.692;2022-11-12T07:56:00;28.45;;;10.48;;
53751;SDS011;41095;53.090;6.692;2022-11-12T07:58:29;68.80;;;15.13;;
53751;SDS011;41095;53.090;6.692;2022-11-12T08:00:56;63.47;;;13.10;;
53751;SDS011;41095;53.090;6.692;2022-11-12T08:03:22;55.05;;;12.07;;
53751;SDS011;41095;53.090;6.692;2022-11-12T08:05:49;54.35;;;11.45;;
53751;SDS011;41095;53.090;6.692;2022-11-12T08:08:15;30.40;;;10.23;;
53751;SDS011;41095;53.090;6.692;2022-11-12T08:10:40;27.85;;;10.57;;
53751;SDS011;41095;53.090;6.692;2022-11-12T08:13:06;22.63;;;11.23;;
53751;SDS011;41095;53.090;6.692;2022-11-12T08:15:32;70.68;;;15.45;;
53751;SDS011;41095;53.090;6.692;2022-11-12T08:17:58;105.55;;;17.42;;
53751;SDS011;41095;53.090;6.692;2022-11-12T08:20:23;76.43;;;16.63;;
53751;SDS011;41095;53.090;6.692;2022-11-12T08:22:49;81.10;;;15.07;;
53751;SDS011;41095;53.090;6.692;2022-11-12T08:25:15;36.72;;;13.10;;
53751;SDS011;41095;53.090;6.692;2022-11-12T08:27:41;67.78;;;15.18;;
53751;SDS011;41095;53.090;6.692;2022-11-12T08:30:06;91.43;;;14.65;;
53751;SDS011;41095;53.090;6.692;2022-11-12T08:32:33;61.78;;;13.27;;
53751;SDS011;41095;53.090;6.692;2022-11-12T08:34:58;26.05;;;8.38;;
53751;SDS011;41095;53.090;6.692;2022-11-12T08:37:24;77.90;;;13.13;;
53751;SDS011;41095;53.090;6.692;2022-11-12T08:39:50;118.32;;;17.33;;
53751;SDS011;41095;53.090;6.692;2022-11-12T08:42:15;42.42;;;10.80;;
53751;SDS011;41095;53.090;6.692;2022-11-12T08:44:41;73.10;;;16.67;;
53751;SDS011;41095;53.090;6.692;2022-11-12T08:47:07;80.40;;;13.93;;
53751;SDS011;41095;53.090;6.692;2022-11-12T08:49:32;69.43;;;14.88;;
53751;SDS011;41095;53.090;6.692;2022-11-12T08:51:58;78.45;;;15.85;;
53751;SDS011;41095;53.090;6.692;2022-11-12T08:54:24;135.90;;;21.05;;
53751;SDS011;41095;53.090;6.692;2022-11-12T08:56:49;103.55;;;20.33;;
53751;SDS011;41095;53.090;6.692;2022-11-12T08:59:15;93.63;;;16.45;;
53751;SDS011;41095;53.090;6.692;2022-11-12T09:01:41;127.85;;;21.65;;
53751;SDS011;41095;53.090;6.692;2022-11-12T09:04:07;132.60;;;19.63;;
53751;SDS011;41095;53.090;6.692;2022-11-12T09:06:33;94.97;;;17.58;;
53751;SDS011;41095;53.090;6.692;2022-11-12T09:08:58;75.25;;;16.40;;
53751;SDS011;41095;53.090;6.692;2022-11-12T09:11:24;93.15;;;18.95;;
53751;SDS011;41095;53.090;6.692;2022-11-12T09:13:53;100.00;;;17.92;;
53751;SDS011;41095;53.090;6.692;2022-11-12T09:16:18;104.80;;;20.58;;
53751;SDS011;41095;53.090;6.692;2022-11-12T09:18:45;110.88;;;18.77;;
53751;SDS011;41095;53.090;6.692;2022-11-12T09:21:12;59.28;;;18.20;;
53751;SDS011;41095;53.090;6.692;2022-11-12T09:23:37;99.00;;;25.38;;
53751;SDS011;41095;53.090;6.692;2022-11-12T09:26:04;85.88;;;20.83;;
53751;SDS011;41095;53.090;6.692;2022-11-12T09:28:30;99.95;;;19.88;;
53751;SDS011;41095;53.090;6.692;2022-11-12T09:30:56;103.20;;;23.65;;
53751;SDS011;41095;53.090;6.692;2022-11-12T09:33:23;155.02;;;25.38;;
53751;SDS011;41095;53.090;6.692;2022-11-12T09:35:51;133.18;;;25.02;;
53751;SDS011;41095;53.090;6.692;2022-11-12T09:38:18;77.15;;;17.80;;
53751;SDS011;41095;53.090;6.692;2022-11-12T09:40:47;94.85;;;21.42;;
53751;SDS011;41095;53.090;6.692;2022-11-12T09:44:00;119.03;;;21.80;;
53751;SDS011;41095;53.090;6.692;2022-11-12T09:46:32;138.82;;;25.00;;
53751;SDS011;41095;53.090;6.692;2022-11-12T09:50:02;107.88;;;29.35;;
53751;SDS011;41095;53.090;6.692;2022-11-12T09:52:16;107.25;;;24.73;;
53751;SDS011;41095;53.090;6.692;2022-11-12T09:57:14;105.53;;;23.48;;
53751;SDS011;41095;53.090;6.692;2022-11-12T09:59:40;102.13;;;23.70;;
53751;SDS011;41095;53.090;6.692;2022-11-12T10:10:53;106.63;;;22.13;;
53751;SDS011;41095;53.090;6.692;2022-11-12T10:13:46;88.40;;;20.13;;
53751;SDS011;41095;53.090;6.692;2022-11-12T10:21:35;97.65;;;19.92;;
53751;SDS011;41095;53.090;6.692;2022-11-12T10:24:24;88.97;;;21.33;;
53751;SDS011;41095;53.090;6.692;2022-11-12T10:26:57;83.72;;;20.92;;
53751;SDS011;41095;53.090;6.692;2022-11-12T10:29:28;78.35;;;20.45;;
53751;SDS011;41095;53.090;6.692;2022-11-12T10:32:07;59.25;;;18.85;;
53751;SDS011;41095;53.090;6.692;2022-11-12T10:34:37;64.60;;;21.08;;
53751;SDS011;41095;53.090;6.692;2022-11-12T10:39:32;41.30;;;19.38;;
53751;SDS011;41095;53.090;6.692;2022-11-12T10:44:30;56.28;;;23.23;;
53751;SDS011;41095;53.090;6.692;2022-11-12T10:47:14;39.47;;;21.42;;
53751;SDS011;41095;53.090;6.692;2022-11-12T10:49:42;47.78;;;22.58;;
53751;SDS011;41095;53.090;6.692;2022-11-12T10:52:21;30.30;;;16.80;;
53751;SDS011;41095;53.090;6.692;2022-11-12T10:54:47;55.75;;;21.02;;
53751;SDS011;41095;53.090;6.692;2022-11-12T10:57:20;29.33;;;17.52;;
53751;SDS011;41095;53.090;6.692;2022-11-12T11:00:05;29.67;;;18.80;;
53751;SDS011;41095;53.090;6.692;2022-11-12T11:02:33;22.88;;;18.23;;
53751;SDS011;41095;53.090;6.692;2022-11-12T11:04:59;25.73;;;18.75;;
53751;SDS011;41095;53.090;6.692;2022-11-12T11:07:25;26.83;;;17.85;;
53751;SDS011;41095;53.090;6.692;2022-11-12T11:09:59;23.40;;;17.17;;
53751;SDS011;41095;53.090;6.692;2022-11-12T11:12:26;22.63;;;14.43;;
53751;SDS011;41095;53.090;6.692;2022-11-12T11:17:52;18.65;;;12.13;;
53751;SDS011;41095;53.090;6.692;2022-11-12T11:20:27;15.40;;;12.27;;
53751;SDS011;41095;53.090;6.692;2022-11-12T11:23:19;23.15;;;15.50;;
53751;SDS011;41095;53.090;6.692;2022-11-12T11:25:49;22.20;;;13.57;;
53751;SDS011;41095;53.090;6.692;2022-11-12T11:28:38;15.82;;;12.20;;
53751;SDS011;41095;53.090;6.692;2022-11-12T11:33:54;19.58;;;12.02;;
53751;SDS011;41095;53.090;6.692;2022-11-12T11:36:35;14.18;;;10.77;;
53751;SDS011;41095;53.090;6.692;2022-11-12T11:39:18;13.65;;;11.02;;
53751;SDS011;41095;53.090;6.692;2022-11-12T11:42:11;15.88;;;11.95;;
53751;SDS011;41095;53.090;6.692;2022-11-12T11:45:22;12.82;;;10.13;;
53751;SDS011;41095;53.090;6.692;2022-11-12T11:48:14;13.93;;;10.88;;
53751;SDS011;41095;53.090;6.692;2022-11-12T11:54:14;13.32;;;10.10;;
53751;SDS011;41095;53.090;6.692;2022-11-12T11:56:52;12.70;;;9.05;;
53751;SDS011;41095;53.090;6.692;2022-11-12T11:59:33;13.43;;;10.82;;
53751;SDS011;41095;53.090;6.692;2022-11-12T12:05:32;10.90;;;9.63;;
53751;SDS011;41095;53.090;6.692;2022-11-12T12:13:54;11.30;;;8.85;;
53751;SDS011;41095;53.090;6.692;2022-11-12T12:19:11;11.90;;;9.02;;
53751;SDS011;41095;53.090;6.692;2022-11-12T12:21:45;11.90;;;10.50;;
53751;SDS011;41095;53.090;6.692;2022-11-12T12:24:25;14.02;;;8.63;;
53751;SDS011;41095;53.090;6.692;2022-11-12T12:27:08;12.82;;;10.18;;
53751;SDS011;41095;53.090;6.692;2022-11-12T12:29:55;10.43;;;9.20;;
53751;SDS011;41095;53.090;6.692;2022-11-12T12:32:40;12.73;;;8.68;;
53751;SDS011;41095;53.090;6.692;2022-11-12T12:38:10;12.90;;;8.23;;
53751;SDS011;41095;53.090;6.692;2022-11-12T12:43:42;11.82;;;10.30;;
53751;SDS011;41095;53.090;6.692;2022-11-12T12:46:19;10.77;;;9.50;;
53751;SDS011;41095;53.090;6.692;2022-11-12T12:48:48;14.73;;;10.82;;
53751;SDS011;41095;53.090;6.692;2022-11-12T12:51:17;10.50;;;8.52;;
53751;SDS011;41095;53.090;6.692;2022-11-12T12:53:43;9.13;;;8.20;;
53751;SDS011;41095;53.090;6.692;2022-11-12T12:58:44;14.95;;;9.50;;
53751;SDS011;41095;53.090;6.692;2022-11-12T13:06:22;13.60;;;9.20;;
53751;SDS011;41095;53.090;6.692;2022-11-12T13:35:20;12.25;;;10.13;;
53751;SDS011;41095;53.090;6.692;2022-11-12T13:40:53;16.67;;;11.13;;
53751;SDS011;41095;53.090;6.692;2022-11-12T13:51:05;12.73;;;10.25;;
53751;SDS011;41095;53.090;6.692;2022-11-12T13:53:42;12.13;;;10.10;;
53751;SDS011;41095;53.090;6.692;2022-11-12T13:56:12;13.77;;;11.40;;
53751;SDS011;41095;53.090;6.692;2022-11-12T13:58:48;14.50;;;11.10;;
53751;SDS011;41095;53.090;6.692;2022-11-12T14:01:14;15.52;;;10.30;;
53751;SDS011;41095;53.090;6.692;2022-11-12T14:03:45;14.23;;;12.15;;
53751;SDS011;41095;53.090;6.692;2022-11-12T14:06:14;13.15;;;10.43;;
53751;SDS011;41095;53.090;6.692;2022-11-12T14:09:08;11.65;;;10.15;;
53751;SDS011;41095;53.090;6.692;2022-11-12T14:11:59;14.75;;;10.80;;
53751;SDS011;41095;53.090;6.692;2022-11-12T14:22:50;17.48;;;11.27;;
53751;SDS011;41095;53.090;6.692;2022-11-12T14:27:49;13.55;;;9.88;;
53751;SDS011;41095;53.090;6.692;2022-11-12T14:30:20;13.98;;;10.55;;
53751;SDS011;41095;53.090;6.692;2022-11-12T14:32:49;13.77;;;11.48;;
53751;SDS011;41095;53.090;6.692;2022-11-12T14:37:51;12.93;;;10.25;;
53751;SDS011;41095;53.090;6.692;2022-11-12T14:40:21;16.38;;;9.98;;
53751;SDS011;41095;53.090;6.692;2022-11-12T14:42:49;11.02;;;9.35;;
53751;SDS011;41095;53.090;6.692;2022-11-12T14:45:16;14.52;;;10.82;;
53751;SDS011;41095;53.090;6.692;2022-11-12T14:47:45;14.55;;;10.75;;
53751;SDS011;41095;53.090;6.692;2022-11-12T14:50:16;12.52;;;9.77;;
53751;SDS011;41095;53.090;6.692;2022-11-12T14:53:04;11.75;;;9.98;;
53751;SDS011;41095;53.090;6.692;2022-11-12T14:55:38;14.60;;;10.88;;
53751;SDS011;41095;53.090;6.692;2022-11-12T14:58:10;15.80;;;10.65;;
53751;SDS011;41095;53.090;6.692;2022-11-12T15:00:41;12.38;;;10.40;;
53751;SDS011;41095;53.090;6.692;2022-11-12T15:03:11;16.65;;;11.45;;
53751;SDS011;41095;53.090;6.692;2022-11-12T15:05:55;14.23;;;10.60;;
53751;SDS011;41095;53.090;6.692;2022-11-12T15:08:31;14.07;;;9.93;;
53751;SDS011;41095;53.090;6.692;2022-11-12T15:13:42;14.52;;;10.80;;
53751;SDS011;41095;53.090;6.692;2022-11-12T15:16:09;13.93;;;11.05;;
53751;SDS011;41095;53.090;6.692;2022-11-12T15:18:42;13.55;;;11.90;;
53751;SDS011;41095;53.090;6.692;2022-11-12T15:23:48;17.10;;;11.13;;
53751;SDS011;41095;53.090;6.692;2022-11-12T15:26:23;14.60;;;11.90;;
53751;SDS011;41095;53.090;6.692;2022-11-12T15:29:00;14.98;;;11.05;;
53751;SDS011;41095;53.090;6.692;2022-11-12T15:31:48;14.98;;;10.77;;
53751;SDS011;41095;53.090;6.692;2022-11-12T15:34:27;16.10;;;12.02;;
53751;SDS011;41095;53.090;6.692;2022-11-12T15:36:54;13.60;;;10.57;;
53751;SDS011;41095;53.090;6.692;2022-11-12T15:39:21;14.27;;;11.60;;
53751;SDS011;41095;53.090;6.692;2022-11-12T15:42:00;14.73;;;10.75;;
53751;SDS011;41095;53.090;6.692;2022-11-12T15:44:32;13.73;;;11.30;;
53751;SDS011;41095;53.090;6.692;2022-11-12T15:47:00;12.68;;;10.30;;
53751;SDS011;41095;53.090;6.692;2022-11-12T15:49:27;14.20;;;10.90;;
53751;SDS011;41095;53.090;6.692;2022-11-12T15:51:52;14.65;;;10.40;;
53751;SDS011;41095;53.090;6.692;2022-11-12T15:54:18;18.40;;;12.05;;
53751;SDS011;41095;53.090;6.692;2022-11-12T15:56:44;14.13;;;11.18;;
53751;SDS011;41095;53.090;6.692;2022-11-12T15:59:11;14.90;;;10.32;;
53751;SDS011;41095;53.090;6.692;2022-11-12T16:01:40;12.38;;;10.38;;
53751;SDS011;41095;53.090;6.692;2022-11-12T16:04:07;11.30;;;8.77;;
53751;SDS011;41095;53.090;6.692;2022-11-12T16:06:35;13.65;;;10.55;;
53751;SDS011;41095;53.090;6.692;2022-11-12T16:09:00;13.15;;;10.68;;
53751;SDS011;41095;53.090;6.692;2022-11-12T16:11:26;13.23;;;10.35;;
53751;SDS011;41095;53.090;6.692;2022-11-12T16:14:02;11.30;;;8.25;;
53751;SDS011;41095;53.090;6.692;2022-11-12T16:16:29;11.00;;;8.32;;
53751;SDS011;41095;53.090;6.692;2022-11-12T16:18:55;14.77;;;10.48;;
53751;SDS011;41095;53.090;6.692;2022-11-12T16:21:21;14.70;;;10.27;;
53751;SDS011;41095;53.090;6.692;2022-11-12T16:23:47;13.57;;;9.68;;
53751;SDS011;41095;53.090;6.692;2022-11-12T16:26:13;13.88;;;10.23;;
53751;SDS011;41095;53.090;6.692;2022-11-12T16:28:43;16.10;;;11.80;;
53751;SDS011;41095;53.090;6.692;2022-11-12T16:31:09;14.23;;;11.38;;
53751;SDS011;41095;53.090;6.692;2022-11-12T16:33:35;17.13;;;12.35;;
53751;SDS011;41095;53.090;6.692;2022-11-12T16:36:00;14.23;;;11.45;;
53751;SDS011;41095;53.090;6.692;2022-11-12T16:38:26;16.52;;;11.52;;
53751;SDS011;41095;53.090;6.692;2022-11-12T16:40:52;14.00;;;11.70;;